Time;durP1;ratioP1;P1;durP2;ratioP2;P2;SDS_P1;SDS_P2;PMS_P1;PMS_P2;Temp;Humidity;BMP_temperature;BMP_pressure;BME280_temperature;BME280_humidity;BME280_pressure;Samples;Min_cycle;Max_cycle;Signal;HPM_P1;HPM_P2
2024/04/25 05:02:44;;;;;;;6.37;3.50;;;;;;;;;;5202308;27;20588;-71
2024/04/25 05:05:10;;;;;;;6.83;5.10;;;;;;;;;;5179616;27;20435;-71
2024/04/25 05:07:35;;;;;;;6.77;3.63;;;;;;;;;;5180031;27;21229;-72
2024/04/25 05:10:02;;;;;;;5.23;3.97;;;;;;;;;;5179200;27;20850;-72
2024/04/25 05:12:28;;;;;;;6.63;3.60;;;;;;;;;;5148033;27;20460;-72
2024/04/25 05:14:54;;;;;;;5.60;3.70;;;;;;;;;;5147385;27;20443;-72
2024/04/25 05:17:20;;;;;;;10.40;4.00;;;;;;;;;;5146118;27;20560;-73
2024/04/25 05:19:46;;;;;;;9.50;4.73;;;;;;;;;;5146123;27;20475;-73
2024/04/25 05:22:12;;;;;;;6.33;3.73;;;;;;;;;;5146262;27;20471;-73
2024/04/25 05:24:38;;;;;;;7.80;4.33;;;;;;;;;;5148382;27;20557;-73
2024/04/25 05:27:04;;;;;;;8.50;3.47;;;;;;;;;;5145977;27;20970;-71
2024/04/25 05:29:29;;;;;;;6.00;3.90;;;;;;;;;;5145904;27;20971;-72
2024/04/25 05:31:57;;;;;;;7.07;3.97;;;;;;;;;;5146007;27;20847;-72
2024/04/25 05:34:23;;;;;;;5.63;4.17;;;;;;;;;;5145775;27;20953;-72
2024/04/25 05:36:49;;;;;;;10.10;4.00;;;;;;;;;;5145461;27;20463;-72
2024/04/25 05:39:15;;;;;;;10.13;5.07;;;;;;;;;;5145345;27;20451;-73
2024/04/25 05:41:41;;;;;;;7.50;4.90;;;;;;;;;;5145429;27;20561;-72
2024/04/25 05:44:07;;;;;;;7.90;4.63;;;;;;;;;;5145724;27;20501;-72
2024/04/25 05:46:33;;;;;;;5.20;4.10;;;;;;;;;;5145238;27;20448;-72
2024/04/25 05:48:59;;;;;;;12.10;5.87;;;;;;;;;;5145200;27;21077;-72
2024/04/25 05:51:24;;;;;;;6.17;4.03;;;;;;;;;;5145534;27;20832;-73
2024/04/25 05:53:50;;;;;;;5.73;4.70;;;;;;;;;;5145825;27;20500;-73
2024/04/25 05:56:16;;;;;;;10.37;4.70;;;;;;;;;;5145648;27;20444;-71
2024/04/25 05:58:46;;;;;;;6.97;4.73;;;;;;;;;;5146007;27;20456;-71
2024/04/25 06:01:16;;;;;;;8.30;5.00;;;;;;;;;;5145527;27;20561;-72
2024/04/25 06:03:42;;;;;;;4.97;4.17;;;;;;;;;;5166615;27;20459;-73
2024/04/25 06:06:08;;;;;;;4.83;3.87;;;;;;;;;;5177972;27;20450;-73
2024/04/25 06:08:34;;;;;;;5.97;4.40;;;;;;;;;;5173136;27;20478;-72
2024/04/25 06:11:00;;;;;;;10.80;5.73;;;;;;;;;;5177482;27;20536;-72
2024/04/25 06:13:26;;;;;;;7.40;4.67;;;;;;;;;;5177206;27;20455;-73
2024/04/25 06:15:52;;;;;;;12.37;5.50;;;;;;;;;;5170676;27;20857;-72
2024/04/25 06:18:18;;;;;;;11.50;4.83;;;;;;;;;;5175149;27;20458;-73
2024/04/25 06:20:44;;;;;;;7.00;4.37;;;;;;;;;;5168864;27;20791;-73
2024/04/25 06:23:09;;;;;;;10.73;4.50;;;;;;;;;;5177052;27;20447;-74
2024/04/25 06:25:36;;;;;;;7.30;4.40;;;;;;;;;;5177071;27;20443;-73
2024/04/25 06:28:02;;;;;;;8.70;5.07;;;;;;;;;;5177814;27;21014;-73
2024/04/25 06:30:28;;;;;;;12.23;5.00;;;;;;;;;;5171230;27;20557;-72
2024/04/25 06:32:54;;;;;;;6.47;4.90;;;;;;;;;;5176559;27;20467;-72
2024/04/25 06:35:20;;;;;;;10.60;4.67;;;;;;;;;;5174290;27;20456;-72
2024/04/25 06:37:46;;;;;;;10.63;4.23;;;;;;;;;;5165886;27;20460;-72
2024/04/25 06:40:12;;;;;;;14.87;4.80;;;;;;;;;;5156072;27;20523;-73
2024/04/25 06:42:38;;;;;;;10.20;4.90;;;;;;;;;;5177102;27;20446;-73
2024/04/25 06:45:04;;;;;;;7.10;4.53;;;;;;;;;;5177675;27;21034;-73
2024/04/25 06:47:31;;;;;;;11.20;5.20;;;;;;;;;;5176983;27;20451;-74
2024/04/25 06:49:57;;;;;;;6.70;4.00;;;;;;;;;;5177833;27;20502;-73
2024/04/25 06:52:23;;;;;;;5.30;4.20;;;;;;;;;;5164360;27;20464;-73
2024/04/25 06:54:51;;;;;;;9.50;4.47;;;;;;;;;;5167237;27;20874;-71
2024/04/25 06:57:17;;;;;;;6.17;3.97;;;;;;;;;;5177591;27;20501;-73
2024/04/25 06:59:43;;;;;;;7.90;4.83;;;;;;;;;;5177468;27;20534;-73
2024/04/25 07:02:09;;;;;;;5.10;4.03;;;;;;;;;;5175805;27;20475;-71
2024/04/25 07:04:35;;;;;;;10.73;3.40;;;;;;;;;;5178551;27;20447;-71
2024/04/25 07:07:01;;;;;;;10.77;3.87;;;;;;;;;;5177584;27;20579;-67
2024/04/25 07:09:27;;;;;;;8.40;3.80;;;;;;;;;;5177022;27;20507;-72
2024/04/25 07:11:53;;;;;;;6.90;4.10;;;;;;;;;;5176334;27;20827;-72
2024/04/25 07:14:19;;;;;;;6.27;4.43;;;;;;;;;;5173667;27;20930;-72
2024/04/25 07:16:45;;;;;;;6.30;4.32;;;;;;;;;;5157526;27;20368;-73
2024/04/25 07:19:13;;;;;;;9.03;4.27;;;;;;;;;;5157705;27;20598;-73
2024/04/25 07:21:39;;;;;;;5.90;3.13;;;;;;;;;;5177017;27;20466;-73
2024/04/25 07:24:05;;;;;;;11.53;4.20;;;;;;;;;;5177077;27;20585;-74
2024/04/25 07:26:31;;;;;;;10.87;4.17;;;;;;;;;;5175012;27;20458;-73
2024/04/25 07:28:57;;;;;;;9.23;4.00;;;;;;;;;;5165759;27;20600;-74
2024/04/25 07:31:23;;;;;;;5.63;3.17;;;;;;;;;;5155741;27;20579;-74
2024/04/25 07:33:49;;;;;;;4.70;3.43;;;;;;;;;;5176955;27;20529;-74
2024/04/25 07:36:20;;;;;;;7.07;4.00;;;;;;;;;;5176853;27;20518;-74
2024/04/25 07:38:46;;;;;;;4.80;4.00;;;;;;;;;;5175160;27;21556;-74
2024/04/25 07:41:11;;;;;;;4.40;3.07;;;;;;;;;;5176387;27;20470;-73
2024/04/25 07:43:37;;;;;;;5.60;3.50;;;;;;;;;;5175992;27;20495;-74
2024/04/25 07:46:06;;;;;;;3.83;3.40;;;;;;;;;;5154714;27;20979;-74
2024/04/25 07:48:32;;;;;;;6.47;3.60;;;;;;;;;;5153411;27;20994;-74
2024/04/25 07:50:58;;;;;;;6.03;3.67;;;;;;;;;;5174404;27;20534;-74
2024/04/25 07:53:25;;;;;;;10.13;3.57;;;;;;;;;;5176739;27;20548;-73
2024/04/25 07:55:50;;;;;;;5.90;3.70;;;;;;;;;;5177299;27;20954;-73
2024/04/25 07:58:16;;;;;;;6.90;3.83;;;;;;;;;;5159635;27;20468;-74
2024/04/25 08:00:44;;;;;;;8.20;3.60;;;;;;;;;;5149844;27;20906;-75
2024/04/25 08:03:10;;;;;;;5.00;3.50;;;;;;;;;;5156088;27;20870;-74
2024/04/25 08:05:36;;;;;;;11.57;3.70;;;;;;;;;;5170014;27;20472;-75
2024/04/25 08:08:02;;;;;;;8.60;3.50;;;;;;;;;;5166170;27;20440;-73
2024/04/25 08:10:28;;;;;;;14.30;5.37;;;;;;;;;;5168373;27;20436;-74
2024/04/25 08:12:54;;;;;;;8.03;4.40;;;;;;;;;;5167988;27;20448;-77
2024/04/25 08:15:20;;;;;;;8.93;4.97;;;;;;;;;;5169568;27;20480;-78
2024/04/25 08:17:48;;;;;;;7.00;3.70;;;;;;;;;;5199268;27;20558;-76
2024/04/25 08:20:15;;;;;;;7.13;3.03;;;;;;;;;;5167755;27;20531;-77
2024/04/25 08:22:41;;;;;;;13.73;5.40;;;;;;;;;;5189122;27;20555;-76
2024/04/25 08:25:07;;;;;;;11.70;6.67;;;;;;;;;;5190313;27;20463;-74
2024/04/25 08:27:33;;;;;;;10.60;5.40;;;;;;;;;;5175356;27;20475;-74
2024/04/25 08:29:59;;;;;;;9.13;4.20;;;;;;;;;;5168986;27;20475;-76
2024/04/25 08:32:25;;;;;;;14.93;4.17;;;;;;;;;;5148031;27;20472;-76
2024/04/25 08:34:51;;;;;;;9.53;3.60;;;;;;;;;;5165433;27;20535;-74
2024/04/25 08:37:17;;;;;;;7.77;3.90;;;;;;;;;;5155442;27;20597;-73
2024/04/25 08:39:43;;;;;;;5.73;2.80;;;;;;;;;;5161857;27;20478;-74
2024/04/25 08:42:10;;;;;;;5.73;2.80;;;;;;;;;;5176147;27;20526;-74
2024/04/25 08:44:38;;;;;;;14.83;4.10;;;;;;;;;;5175620;27;20467;-74
2024/04/25 08:47:04;;;;;;;8.37;2.63;;;;;;;;;;5168834;27;20484;-76
2024/04/25 08:49:33;;;;;;;6.87;2.63;;;;;;;;;;5157854;27;20468;-76
2024/04/25 08:52:00;;;;;;;7.03;2.33;;;;;;;;;;5141906;27;20576;-74
2024/04/25 08:54:26;;;;;;;14.27;3.83;;;;;;;;;;5143471;27;20456;-76
2024/04/25 08:56:54;;;;;;;12.17;3.37;;;;;;;;;;5145158;27;20558;-75
2024/04/25 08:59:20;;;;;;;11.13;3.00;;;;;;;;;;5161130;27;21249;-73
2024/04/25 09:01:50;;;;;;;6.30;2.90;;;;;;;;;;5143734;27;20471;-73
2024/04/25 09:04:18;;;;;;;5.00;2.97;;;;;;;;;;5156463;27;20472;-74
2024/04/25 09:06:45;;;;;;;5.83;3.03;;;;;;;;;;5143056;27;20523;-74
2024/04/25 09:09:12;;;;;;;5.40;2.80;;;;;;;;;;5163236;27;21069;-74
2024/04/25 09:11:40;;;;;;;11.13;3.20;;;;;;;;;;5183630;27;20471;-74
2024/04/25 09:14:06;;;;;;;8.13;3.20;;;;;;;;;;5162499;27;20561;-72
2024/04/25 09:16:39;;;;;;;6.97;2.60;;;;;;;;;;5160868;27;20858;-73
2024/04/25 09:19:07;;;;;;;10.20;3.00;;;;;;;;;;5165329;27;20479;-73
2024/04/25 09:21:35;;;;;;;9.80;3.70;;;;;;;;;;5175171;27;20581;-73
2024/04/25 09:24:01;;;;;;;8.53;2.73;;;;;;;;;;5177342;27;20930;-72
2024/04/25 09:26:30;;;;;;;11.33;3.70;;;;;;;;;;5168765;27;20853;-73
2024/04/25 09:28:56;;;;;;;14.23;3.37;;;;;;;;;;5158299;27;20530;-74
2024/04/25 09:31:22;;;;;;;11.73;3.70;;;;;;;;;;5164831;27;20472;-72
2024/04/25 09:33:48;;;;;;;14.40;3.20;;;;;;;;;;5173954;27;20470;-72
2024/04/25 09:36:15;;;;;;;6.40;2.80;;;;;;;;;;5159040;27;21059;-73
2024/04/25 09:38:41;;;;;;;5.73;2.90;;;;;;;;;;5158193;27;20470;-73
2024/04/25 09:41:08;;;;;;;4.20;2.70;;;;;;;;;;5185262;27;20573;-72
2024/04/25 09:43:34;;;;;;;5.70;3.50;;;;;;;;;;5180347;27;20454;-72
2024/04/25 09:46:05;;;;;;;6.33;3.13;;;;;;;;;;5176472;27;20847;-72
2024/04/25 09:48:33;;;;;;;4.10;2.50;;;;;;;;;;5164779;27;20479;-72
2024/04/25 09:51:05;;;;;;;7.33;3.30;;;;;;;;;;5146555;27;20845;-71
2024/04/25 09:53:46;;;;;;;7.70;3.00;;;;;;;;;;5149813;27;20519;-73
2024/04/25 09:56:13;;;;;;;5.13;2.33;;;;;;;;;;5149832;27;20516;-73
2024/04/25 09:59:02;;;;;;;4.03;2.50;;;;;;;;;;5167121;27;20562;-72
2024/04/25 10:01:28;;;;;;;4.00;2.77;;;;;;;;;;5176446;27;20530;-75
2024/04/25 10:03:56;;;;;;;8.43;3.10;;;;;;;;;;5175510;27;20539;-71
2024/04/25 10:06:22;;;;;;;5.47;2.57;;;;;;;;;;5166136;27;20564;-70
2024/04/25 10:08:48;;;;;;;10.50;2.77;;;;;;;;;;5166764;27;20613;-73
2024/04/25 10:11:14;;;;;;;10.23;3.40;;;;;;;;;;5168553;27;21018;-73
2024/04/25 10:13:48;;;;;;;4.90;1.60;;;;;;;;;;5161213;27;20474;-73
2024/04/25 10:16:14;;;;;;;7.87;1.87;;;;;;;;;;5178025;27;20474;-74
2024/04/25 10:18:48;;;;;;;5.20;2.03;;;;;;;;;;5170619;27;20482;-73
2024/04/25 10:21:14;;;;;;;3.93;2.00;;;;;;;;;;5163733;27;20894;-74
2024/04/25 10:23:40;;;;;;;6.43;2.03;;;;;;;;;;5177365;27;20459;-74
2024/04/25 10:26:15;;;;;;;4.30;1.90;;;;;;;;;;5168455;27;20874;-73
2024/04/25 10:28:41;;;;;;;7.73;1.90;;;;;;;;;;5153008;27;20467;-71
2024/04/25 10:31:07;;;;;;;3.00;2.20;;;;;;;;;;5148172;27;20459;-72
2024/04/25 10:33:33;;;;;;;3.03;2.33;;;;;;;;;;5149798;27;20464;-72
2024/04/25 10:36:03;;;;;;;5.43;1.93;;;;;;;;;;5164584;27;20705;-73
2024/04/25 10:38:29;;;;;;;8.03;1.80;;;;;;;;;;5176466;27;20458;-73
2024/04/25 10:40:56;;;;;;;3.43;2.07;;;;;;;;;;5176006;27;20946;-73
2024/04/25 10:43:22;;;;;;;14.20;5.93;;;;;;;;;;5176905;27;20466;-73
2024/04/25 10:45:48;;;;;;;3.87;2.40;;;;;;;;;;5176827;27;20471;-73
2024/04/25 10:48:14;;;;;;;4.60;2.47;;;;;;;;;;5176033;27;20603;-73
2024/04/25 10:50:42;;;;;;;5.40;1.90;;;;;;;;;;5176905;27;20810;-73
2024/04/25 10:53:08;;;;;;;5.03;2.00;;;;;;;;;;5176891;27;20470;-73
2024/04/25 10:55:34;;;;;;;3.50;1.93;;;;;;;;;;5202632;27;20559;-74
2024/04/25 10:58:10;;;;;;;2.87;1.80;;;;;;;;;;5176979;27;20470;-74
2024/04/25 11:00:45;;;;;;;3.40;2.00;;;;;;;;;;5161542;27;20554;-74
2024/04/25 11:03:12;;;;;;;2.40;1.80;;;;;;;;;;5206514;27;20469;-74
2024/04/25 11:05:41;;;;;;;3.70;2.00;;;;;;;;;;5199380;27;20538;-71
2024/04/25 11:08:07;;;;;;;6.83;1.90;;;;;;;;;;5176384;27;20514;-71
2024/04/25 11:10:33;;;;;;;10.73;2.27;;;;;;;;;;5170303;27;20609;-71
2024/04/25 11:12:59;;;;;;;4.90;2.07;;;;;;;;;;5166777;27;20808;-71
2024/04/25 11:15:26;;;;;;;6.43;2.00;;;;;;;;;;5146333;27;20368;-75
2024/04/25 11:17:52;;;;;;;2.70;2.03;;;;;;;;;;5160567;27;20311;-76
2024/04/25 11:20:19;;;;;;;2.90;1.63;;;;;;;;;;5172623;27;20545;-76
2024/04/25 11:22:44;;;;;;;4.73;1.80;;;;;;;;;;5174951;27;20571;-75
2024/04/25 11:25:17;;;;;;;3.30;2.03;;;;;;;;;;5143469;27;20463;-71
2024/04/25 11:27:43;;;;;;;4.60;1.83;;;;;;;;;;5180932;27;20471;-72
2024/04/25 11:30:10;;;;;;;3.30;1.70;;;;;;;;;;5148389;27;21003;-72
2024/04/25 11:32:36;;;;;;;9.33;3.07;;;;;;;;;;5148067;27;20551;-72
2024/04/25 11:35:21;;;;;;;5.03;2.07;;;;;;;;;;5163585;27;20579;-71
2024/04/25 11:37:48;;;;;;;3.90;2.00;;;;;;;;;;5168421;27;20466;-72
2024/04/25 11:40:14;;;;;;;3.37;2.30;;;;;;;;;;5154189;27;20543;-72
2024/04/25 11:42:40;;;;;;;3.67;2.10;;;;;;;;;;5154550;27;20532;-71
2024/04/25 11:45:06;;;;;;;13.40;3.13;;;;;;;;;;5163694;27;20516;-72
2024/04/25 11:47:32;;;;;;;22.10;5.73;;;;;;;;;;5182234;27;21082;-72
2024/04/25 11:49:58;;;;;;;43.83;10.70;;;;;;;;;;5148507;27;20775;-72
2024/04/25 11:52:24;;;;;;;6.63;2.57;;;;;;;;;;5175436;27;20506;-72
2024/04/25 11:54:51;;;;;;;5.73;2.20;;;;;;;;;;5175896;27;20942;-72
2024/04/25 11:57:17;;;;;;;3.90;1.93;;;;;;;;;;5176052;27;20567;-73
2024/04/25 11:59:43;;;;;;;6.27;2.63;;;;;;;;;;5174962;27;20454;-72
2024/04/25 12:02:11;;;;;;;3.90;1.70;;;;;;;;;;5200930;27;20467;-72
2024/04/25 12:04:37;;;;;;;1.80;1.40;;;;;;;;;;5201068;27;20451;-73
2024/04/25 12:07:04;;;;;;;2.77;1.67;;;;;;;;;;5199612;27;20446;-73
2024/04/25 12:09:30;;;;;;;2.90;1.30;;;;;;;;;;5142770;27;20491;-73
2024/04/25 12:11:57;;;;;;;2.13;1.90;;;;;;;;;;5143826;27;20573;-72
2024/04/25 12:14:23;;;;;;;5.97;2.30;;;;;;;;;;5168932;27;20444;-73
2024/04/25 12:16:49;;;;;;;1.73;1.57;;;;;;;;;;5167952;27;20499;-73
2024/04/25 12:19:15;;;;;;;11.47;2.17;;;;;;;;;;5167310;27;20460;-73
2024/04/25 12:21:41;;;;;;;7.30;1.80;;;;;;;;;;5142988;27;20467;-73
2024/04/25 12:24:07;;;;;;;2.70;1.60;;;;;;;;;;5166180;27;20536;-74
2024/04/25 12:26:33;;;;;;;5.50;2.03;;;;;;;;;;5175122;27;20457;-73
2024/04/25 12:28:59;;;;;;;2.37;1.60;;;;;;;;;;5174758;27;20462;-73
2024/04/25 12:31:25;;;;;;;1.87;1.60;;;;;;;;;;5174937;27;20554;-73
2024/04/25 12:33:53;;;;;;;7.33;2.27;;;;;;;;;;5174810;27;20838;-72
2024/04/25 12:36:19;;;;;;;3.70;1.83;;;;;;;;;;5200554;27;20815;-73
2024/04/25 12:38:45;;;;;;;4.57;1.80;;;;;;;;;;5174664;27;20499;-73
2024/04/25 12:41:12;;;;;;;2.97;1.77;;;;;;;;;;5151384;27;20479;-72
2024/04/25 12:43:38;;;;;;;4.07;2.20;;;;;;;;;;5142718;27;20448;-73
2024/04/25 12:46:04;;;;;;;2.93;1.30;;;;;;;;;;5168630;27;20549;-73
2024/04/25 12:48:30;;;;;;;3.50;1.67;;;;;;;;;;5141395;27;20508;-72
2024/04/25 12:50:56;;;;;;;2.67;1.93;;;;;;;;;;5141582;27;20512;-72
2024/04/25 12:53:22;;;;;;;2.73;1.77;;;;;;;;;;5143432;27;20802;-72
2024/04/25 12:55:49;;;;;;;6.50;1.90;;;;;;;;;;5144021;27;20577;-73
2024/04/25 12:58:15;;;;;;;2.73;1.60;;;;;;;;;;5143386;27;20487;-73
2024/04/25 13:00:41;;;;;;;4.40;2.17;;;;;;;;;;5147177;27;20471;-73
2024/04/25 13:03:08;;;;;;;4.23;2.33;;;;;;;;;;5147246;27;20503;-73
2024/04/25 13:05:34;;;;;;;4.37;1.70;;;;;;;;;;5146567;27;20444;-73
2024/04/25 13:08:00;;;;;;;3.00;1.50;;;;;;;;;;5172451;27;20878;-72
2024/04/25 13:10:26;;;;;;;5.10;1.97;;;;;;;;;;5146844;27;20447;-73
2024/04/25 13:12:52;;;;;;;2.80;2.00;;;;;;;;;;5146456;27;20500;-73
2024/04/25 13:15:18;;;;;;;4.70;2.07;;;;;;;;;;5179474;27;20978;-73
2024/04/25 13:17:44;;;;;;;3.67;1.90;;;;;;;;;;5204398;27;20569;-73
2024/04/25 13:20:10;;;;;;;2.00;1.93;;;;;;;;;;5178898;27;20518;-73
2024/04/25 13:22:37;;;;;;;3.97;1.90;;;;;;;;;;5178957;27;20551;-72
2024/04/25 13:25:03;;;;;;;9.23;2.50;;;;;;;;;;5179556;27;20514;-73
2024/04/25 13:27:29;;;;;;;3.80;2.07;;;;;;;;;;5179264;27;20446;-73
2024/04/25 13:29:55;;;;;;;4.57;2.30;;;;;;;;;;5179621;27;20595;-73
2024/04/25 13:32:22;;;;;;;5.40;2.47;;;;;;;;;;5150680;27;21010;-74
2024/04/25 13:34:51;;;;;;;4.37;2.13;;;;;;;;;;5149993;27;20440;-73
2024/04/25 13:37:17;;;;;;;3.70;1.87;;;;;;;;;;5147713;27;20448;-74
2024/04/25 13:39:46;;;;;;;7.13;1.77;;;;;;;;;;5145862;27;20837;-73
2024/04/25 13:42:12;;;;;;;2.77;1.40;;;;;;;;;;5146256;27;20526;-73
2024/04/25 13:44:39;;;;;;;3.40;2.03;;;;;;;;;;5146284;27;20492;-73
2024/04/25 13:47:05;;;;;;;1.77;1.53;;;;;;;;;;5146217;27;20467;-73
2024/04/25 13:49:31;;;;;;;1.83;1.37;;;;;;;;;;5145791;27;21052;-73
2024/04/25 13:51:57;;;;;;;6.07;2.17;;;;;;;;;;5170594;27;20491;-73
2024/04/25 13:54:23;;;;;;;5.60;1.80;;;;;;;;;;5170754;27;20801;-73
2024/04/25 13:56:50;;;;;;;2.77;1.90;;;;;;;;;;5171507;27;20584;-73
2024/04/25 13:59:20;;;;;;;5.17;2.27;;;;;;;;;;5170876;27;20475;-73
2024/04/25 14:01:46;;;;;;;6.47;2.13;;;;;;;;;;5145963;27;20837;-73
2024/04/25 14:04:12;;;;;;;3.33;1.67;;;;;;;;;;5171240;27;20829;-73
2024/04/25 14:06:41;;;;;;;2.50;1.33;;;;;;;;;;5145419;27;20455;-73
2024/04/25 14:09:07;;;;;;;4.43;1.80;;;;;;;;;;5146438;27;20451;-73
2024/04/25 14:11:33;;;;;;;4.67;2.20;;;;;;;;;;5145756;27;20559;-73
2024/04/25 14:14:04;;;;;;;3.43;1.80;;;;;;;;;;5146008;27;20484;-74
2024/04/25 14:16:30;;;;;;;4.43;2.27;;;;;;;;;;5145527;27;20599;-72
2024/04/25 14:18:56;;;;;;;2.40;1.80;;;;;;;;;;5144909;27;20874;-72
2024/04/25 14:21:22;;;;;;;2.80;1.87;;;;;;;;;;5144983;27;20467;-74
2024/04/25 14:23:48;;;;;;;2.93;2.63;;;;;;;;;;5171021;27;21015;-74
2024/04/25 14:28:58;;;;;;;2.33;1.70;;;;;;;;;;5144457;27;20568;-74
2024/04/25 14:31:24;;;;;;;2.90;2.00;;;;;;;;;;5174595;27;21041;-74
2024/04/25 14:33:50;;;;;;;2.40;1.80;;;;;;;;;;5177970;27;20503;-74
2024/04/25 14:36:16;;;;;;;2.00;1.57;;;;;;;;;;5177633;27;20808;-74
2024/04/25 14:38:43;;;;;;;2.50;1.70;;;;;;;;;;5178306;27;20807;-74
2024/04/25 14:41:11;;;;;;;4.60;1.80;;;;;;;;;;5178379;27;20894;-74
2024/04/25 14:43:37;;;;;;;6.23;2.00;;;;;;;;;;5178089;27;20808;-74
2024/04/25 14:46:03;;;;;;;5.23;1.77;;;;;;;;;;5177274;27;20523;-74
2024/04/25 14:48:29;;;;;;;2.60;1.90;;;;;;;;;;5175936;27;20523;-74
2024/04/25 14:50:55;;;;;;;2.80;2.00;;;;;;;;;;5203544;27;20790;-74
2024/04/25 14:53:22;;;;;;;3.70;1.70;;;;;;;;;;5177705;27;20505;-75
2024/04/25 14:55:48;;;;;;;2.63;1.77;;;;;;;;;;5177866;27;20507;-75
2024/04/25 14:58:14;;;;;;;2.93;1.80;;;;;;;;;;5200279;27;20474;-75
2024/04/25 15:00:40;;;;;;;2.93;2.10;;;;;;;;;;5154119;27;20558;-76
2024/04/25 15:03:06;;;;;;;2.87;1.90;;;;;;;;;;5154219;27;20612;-75
2024/04/25 15:05:33;;;;;;;4.13;2.00;;;;;;;;;;5152678;27;21145;-76
2024/04/25 15:07:59;;;;;;;2.47;1.80;;;;;;;;;;5176759;27;20462;-74
2024/04/25 15:10:25;;;;;;;6.90;2.17;;;;;;;;;;5171528;27;20839;-73
2024/04/25 15:12:51;;;;;;;4.90;2.40;;;;;;;;;;5175267;27;21055;-73
2024/04/25 15:15:17;;;;;;;6.77;2.60;;;;;;;;;;5154187;27;20476;-73
2024/04/25 15:17:48;;;;;;;7.03;1.70;;;;;;;;;;5169922;27;20459;-76
2024/04/25 15:20:14;;;;;;;2.20;1.90;;;;;;;;;;5163877;27;20559;-74
2024/04/25 15:22:40;;;;;;;7.20;2.63;;;;;;;;;;5176648;27;20490;-75
2024/04/25 15:25:06;;;;;;;4.93;2.67;;;;;;;;;;5177656;27;21046;-73
2024/04/25 15:27:32;;;;;;;2.87;1.83;;;;;;;;;;5173990;27;21029;-74
2024/04/25 15:29:58;;;;;;;4.90;2.40;;;;;;;;;;5144547;27;20654;-75
2024/04/25 15:32:25;;;;;;;4.60;1.73;;;;;;;;;;5144141;27;20890;-74
2024/04/25 15:34:51;;;;;;;3.63;2.13;;;;;;;;;;5150807;27;20479;-73
2024/04/25 15:37:19;;;;;;;6.90;2.50;;;;;;;;;;5164478;27;20599;-73
2024/04/25 15:39:45;;;;;;;4.37;2.03;;;;;;;;;;5174454;27;20541;-71
2024/04/25 15:42:14;;;;;;;3.20;2.00;;;;;;;;;;5176594;27;20474;-73
2024/04/25 15:44:39;;;;;;;4.70;2.20;;;;;;;;;;5176043;27;20474;-74
2024/04/25 15:47:05;;;;;;;4.50;2.30;;;;;;;;;;5176783;27;20579;-74
2024/04/25 15:49:31;;;;;;;2.93;1.93;;;;;;;;;;5175573;27;20522;-74
2024/04/25 15:51:57;;;;;;;2.63;2.30;;;;;;;;;;5173927;27;20534;-73
2024/04/25 15:54:23;;;;;;;6.80;2.30;;;;;;;;;;5167146;27;20594;-74
2024/04/25 15:56:49;;;;;;;4.40;2.67;;;;;;;;;;5176186;27;20571;-74
2024/04/25 15:59:16;;;;;;;5.30;2.57;;;;;;;;;;5175220;27;20517;-73
2024/04/25 16:01:42;;;;;;;11.23;2.30;;;;;;;;;;5176359;27;20462;-74
2024/04/25 16:04:09;;;;;;;6.37;2.07;;;;;;;;;;5151492;27;20545;-74
2024/04/25 16:06:35;;;;;;;5.07;2.50;;;;;;;;;;5144906;27;20515;-74
2024/04/25 16:09:01;;;;;;;2.73;1.70;;;;;;;;;;5143370;27;20975;-74
2024/04/25 16:11:27;;;;;;;6.60;2.67;;;;;;;;;;5142785;27;20495;-74
2024/04/25 16:13:53;;;;;;;4.70;2.27;;;;;;;;;;5144740;27;21027;-73
2024/04/25 16:16:19;;;;;;;4.20;2.30;;;;;;;;;;5149832;27;20481;-73
2024/04/25 16:18:45;;;;;;;7.90;2.70;;;;;;;;;;5150671;27;20526;-74
2024/04/25 16:21:11;;;;;;;11.33;3.00;;;;;;;;;;5145769;27;20601;-73
2024/04/25 16:23:40;;;;;;;5.00;2.23;;;;;;;;;;5156898;27;20468;-73
2024/04/25 16:26:09;;;;;;;4.27;2.43;;;;;;;;;;5162030;27;20569;-73
2024/04/25 16:28:35;;;;;;;5.50;2.80;;;;;;;;;;5150746;27;20490;-74
2024/04/25 16:31:01;;;;;;;4.90;3.10;;;;;;;;;;5149175;27;20476;-73
2024/04/25 16:33:27;;;;;;;3.40;2.00;;;;;;;;;;5145498;27;20516;-73
2024/04/25 16:35:54;;;;;;;7.20;2.53;;;;;;;;;;5173622;27;20467;-76
2024/04/25 16:38:20;;;;;;;2.80;2.63;;;;;;;;;;5174326;27;20541;-74
2024/04/25 16:40:46;;;;;;;4.70;2.27;;;;;;;;;;5174927;27;20556;-74
2024/04/25 16:43:12;;;;;;;2.53;1.40;;;;;;;;;;5155510;27;20535;-75
2024/04/25 16:45:38;;;;;;;4.47;2.00;;;;;;;;;;5149485;27;20489;-74
2024/04/25 16:48:07;;;;;;;3.60;1.93;;;;;;;;;;5171073;27;20542;-75
2024/04/25 16:50:33;;;;;;;3.53;2.27;;;;;;;;;;5175605;27;20471;-73
2024/04/25 16:52:59;;;;;;;2.03;1.80;;;;;;;;;;5173487;27;21047;-74
2024/04/25 16:55:25;;;;;;;3.13;1.90;;;;;;;;;;5175248;27;20865;-73
2024/04/25 16:57:51;;;;;;;5.87;1.80;;;;;;;;;;5175292;27;20454;-73
2024/04/25 17:00:17;;;;;;;6.33;1.80;;;;;;;;;;5175550;27;20759;-73
2024/04/25 17:02:43;;;;;;;2.37;1.97;;;;;;;;;;5173806;27;20961;-73
2024/04/25 17:05:12;;;;;;;3.50;2.10;;;;;;;;;;5174269;27;20874;-74
2024/04/25 17:07:38;;;;;;;4.53;2.30;;;;;;;;;;5174901;27;20581;-72
2024/04/25 17:10:05;;;;;;;3.03;2.30;;;;;;;;;;5175745;27;20482;-74
2024/04/25 17:12:31;;;;;;;4.40;1.97;;;;;;;;;;5175577;27;20474;-74
2024/04/25 17:14:57;;;;;;;4.97;2.27;;;;;;;;;;5208415;21;20556;-75
2024/04/25 17:17:23;;;;;;;4.03;2.23;;;;;;;;;;5241678;27;20474;-74
2024/04/25 17:19:49;;;;;;;2.80;2.50;;;;;;;;;;5241125;27;20499;-74
2024/04/25 17:22:15;;;;;;;9.33;2.50;;;;;;;;;;5239353;27;20966;-72
2024/04/25 17:24:41;;;;;;;5.10;2.40;;;;;;;;;;5243532;27;20554;-76
2024/04/25 17:27:07;;;;;;;4.03;2.03;;;;;;;;;;5239145;27;20483;-74
2024/04/25 17:29:35;;;;;;;5.23;2.33;;;;;;;;;;5239036;27;21115;-79
2024/04/25 17:32:02;;;;;;;6.20;2.67;;;;;;;;;;5235992;27;20495;-74
2024/04/25 17:34:28;;;;;;;10.83;2.57;;;;;;;;;;5237506;27;20456;-75
2024/04/25 17:36:53;;;;;;;3.83;2.27;;;;;;;;;;5234436;27;20475;-73
2024/04/25 17:39:19;;;;;;;3.73;2.03;;;;;;;;;;5240551;27;20479;-74
2024/04/25 17:41:45;;;;;;;14.73;2.50;;;;;;;;;;5239534;27;20471;-73
2024/04/25 17:44:11;;;;;;;4.90;2.00;;;;;;;;;;5237865;27;20523;-73
2024/04/25 17:46:37;;;;;;;8.47;2.90;;;;;;;;;;5243804;27;20528;-73
2024/04/25 17:49:03;;;;;;;4.10;2.20;;;;;;;;;;5242759;27;20519;-73
2024/04/25 17:51:35;;;;;;;5.10;2.40;;;;;;;;;;5242846;27;20475;-74
2024/04/25 17:54:01;;;;;;;8.83;2.60;;;;;;;;;;5239839;27;21101;-74
2024/04/25 17:56:26;;;;;;;3.23;1.73;;;;;;;;;;5241787;27;20463;-74
2024/04/25 17:58:53;;;;;;;2.90;2.07;;;;;;;;;;5236983;27;21188;-74
2024/04/25 18:01:19;;;;;;;14.23;3.00;;;;;;;;;;5243538;27;20518;-73
2024/04/25 18:03:45;;;;;;;4.00;2.30;;;;;;;;;;5244284;27;20471;-73
2024/04/25 18:06:11;;;;;;;8.53;2.63;;;;;;;;;;5240099;27;20475;-73
2024/04/25 18:08:37;;;;;;;6.30;2.20;;;;;;;;;;5242414;27;20520;-73
2024/04/25 18:11:04;;;;;;;3.17;2.30;;;;;;;;;;5238733;27;23050;-73
2024/04/25 18:13:30;;;;;;;3.90;2.43;;;;;;;;;;5243591;27;20475;-74
2024/04/25 18:15:55;;;;;;;4.60;2.10;;;;;;;;;;5236216;27;20527;-74
2024/04/25 18:18:21;;;;;;;6.80;2.07;;;;;;;;;;5243461;27;20467;-74
2024/04/25 18:20:48;;;;;;;7.60;2.30;;;;;;;;;;5239978;27;21018;-74
2024/04/25 18:23:13;;;;;;;8.50;2.37;;;;;;;;;;5238163;27;20471;-74
2024/04/25 18:25:39;;;;;;;5.80;3.20;;;;;;;;;;5243028;27;20463;-73
2024/04/25 18:28:05;;;;;;;18.00;2.40;;;;;;;;;;5239485;27;20471;-77
2024/04/25 18:30:32;;;;;;;4.37;3.10;;;;;;;;;;5239566;27;20599;-74
2024/04/25 18:32:57;;;;;;;9.13;2.60;;;;;;;;;;5240468;27;20817;-75
2024/04/25 18:35:24;;;;;;;7.70;2.67;;;;;;;;;;5238237;27;20520;-74
2024/04/25 18:37:50;;;;;;;6.03;2.97;;;;;;;;;;5243436;27;20460;-74
2024/04/25 18:40:16;;;;;;;4.00;2.43;;;;;;;;;;5243103;27;20512;-74
2024/04/25 18:42:41;;;;;;;6.00;2.53;;;;;;;;;;5242811;27;20451;-73
2024/04/25 18:45:08;;;;;;;4.17;2.20;;;;;;;;;;5230029;27;20935;-74
2024/04/25 18:47:34;;;;;;;7.87;3.10;;;;;;;;;;5234799;27;20479;-74
2024/04/25 18:50:00;;;;;;;8.03;3.20;;;;;;;;;;5239843;27;20832;-74
2024/04/25 18:52:26;;;;;;;3.20;2.97;;;;;;;;;;5239329;27;20623;-73
2024/04/25 18:54:52;;;;;;;5.70;2.93;;;;;;;;;;5236520;27;20487;-73
2024/04/25 18:57:18;;;;;;;9.37;4.10;;;;;;;;;;5240022;27;20531;-73
2024/04/25 18:59:44;;;;;;;5.80;3.37;;;;;;;;;;5239644;27;20518;-74
2024/04/25 19:02:10;;;;;;;12.97;4.97;;;;;;;;;;5240521;27;20480;-73
2024/04/25 19:04:36;;;;;;;4.83;3.00;;;;;;;;;;5240203;27;20557;-72
2024/04/25 19:07:03;;;;;;;9.77;4.60;;;;;;;;;;5235859;27;20475;-74
2024/04/25 19:09:29;;;;;;;10.70;4.83;;;;;;;;;;5231663;27;20487;-72
2024/04/25 19:11:55;;;;;;;10.50;3.10;;;;;;;;;;5236949;27;20596;-74
2024/04/25 19:14:21;;;;;;;11.67;3.67;;;;;;;;;;5222495;27;20488;-74
2024/04/25 19:16:47;;;;;;;8.03;3.53;;;;;;;;;;5240230;27;20878;-75
2024/04/25 19:19:13;;;;;;;10.63;2.87;;;;;;;;;;5218758;27;20525;-76
2024/04/25 19:21:48;;;;;;;6.67;3.07;;;;;;;;;;5235467;27;20526;-73
2024/04/25 19:24:18;;;;;;;4.63;2.97;;;;;;;;;;5226871;27;20512;-74
2024/04/25 19:26:44;;;;;;;9.03;4.40;;;;;;;;;;5252849;27;20860;-75
2024/04/25 19:29:14;;;;;;;9.10;3.67;;;;;;;;;;5214682;27;20594;-72
2024/04/25 19:31:40;;;;;;;6.53;3.47;;;;;;;;;;5242652;27;20582;-73
2024/04/25 19:34:06;;;;;;;9.43;3.53;;;;;;;;;;5230745;27;20545;-74
2024/04/25 19:36:32;;;;;;;8.37;3.87;;;;;;;;;;5235210;27;20564;-74
2024/04/25 19:38:58;;;;;;;9.20;4.80;;;;;;;;;;5234386;27;20464;-73
2024/04/25 19:41:26;;;;;;;14.63;5.57;;;;;;;;;;5209138;27;20457;-73